Time;durP1;ratioP1;P1;durP2;ratioP2;P2;SDS_P1;SDS_P2;PMS_P1;PMS_P2;Temp;Humidity;BMP_temperature;BMP_pressure;BME280_temperature;BME280_humidity;BME280_pressure;Samples;Min_cycle;Max_cycle;Signal;HPM_P1;HPM_P2
2022/11/30 00:00:32;;;;;;;10.00;4.22;;;;;;;;;;21083973;28;20442;-67
2022/11/30 00:10:34;;;;;;;7.75;3.90;;;;;;;;;;21083254;28;20052;-67
2022/11/30 00:20:37;;;;;;;12.02;4.75;;;;;;;;;;21064707;28;20086;-65
2022/11/30 00:30:39;;;;;;;8.07;3.70;;;;;;;;;;21081905;28;20079;-65
2022/11/30 00:40:41;;;;;;;10.25;4.35;;;;;;;;;;21083474;28;20048;-66
2022/11/30 00:50:43;;;;;;;10.90;4.25;;;;;;;;;;21081159;28;20400;-66
2022/11/30 01:00:46;;;;;;;8.85;3.55;;;;;;;;;;21079866;28;20051;-66
2022/11/30 01:10:52;;;;;;;7.85;3.00;;;;;;;;;;21080067;28;20625;-66
2022/11/30 01:20:55;;;;;;;8.98;3.78;;;;;;;;;;21079530;28;20499;-65
2022/11/30 01:31:02;;;;;;;16.98;4.75;;;;;;;;;;21079170;28;20063;-65
2022/11/30 01:41:05;;;;;;;12.18;4.32;;;;;;;;;;21078500;28;20044;-67
2022/11/30 01:51:07;;;;;;;12.73;5.35;;;;;;;;;;21077628;28;20056;-69
2022/11/30 02:01:10;;;;;;;13.15;5.72;;;;;;;;;;21061872;28;20055;-67
2022/11/30 02:11:14;;;;;;;11.50;4.90;;;;;;;;;;21078718;28;20481;-65
2022/11/30 02:21:26;;;;;;;6.90;4.15;;;;;;;;;;21092110;28;20080;-67
2022/11/30 02:31:37;;;;;;;6.82;3.17;;;;;;;;;;21091269;28;20063;-66
2022/11/30 02:41:42;;;;;;;9.30;3.58;;;;;;;;;;21091423;28;20484;-65
2022/11/30 02:51:51;;;;;;;5.93;2.60;;;;;;;;;;21091063;28;20754;-66
2022/11/30 03:01:55;;;;;;;7.20;2.63;;;;;;;;;;21089552;28;20480;-67
2022/11/30 03:12:00;;;;;;;3.95;2.50;;;;;;;;;;21088299;28;20047;-66
2022/11/30 03:22:07;;;;;;;6.65;2.60;;;;;;;;;;21087495;28;20047;-66
2022/11/30 03:32:10;;;;;;;5.90;2.50;;;;;;;;;;21086156;28;20067;-66
2022/11/30 03:42:14;;;;;;;8.23;2.38;;;;;;;;;;21087451;28;20074;-67
2022/11/30 03:52:18;;;;;;;8.93;2.63;;;;;;;;;;21085998;28;20085;-67
2022/11/30 04:02:20;;;;;;;4.10;2.28;;;;;;;;;;21083946;28;20048;-67
2022/11/30 04:12:27;;;;;;;5.15;2.47;;;;;;;;;;21066353;28;20052;-66
2022/11/30 04:22:32;;;;;;;4.10;1.90;;;;;;;;;;21082615;28;20044;-66
2022/11/30 04:32:54;;;;;;;5.35;2.15;;;;;;;;;;21066464;28;20412;-67
2022/11/30 04:43:15;;;;;;;4.43;2.30;;;;;;;;;;21082492;28;20036;-66
2022/11/30 04:53:22;;;;;;;7.82;2.28;;;;;;;;;;21081060;28;20044;-66
2022/11/30 05:03:25;;;;;;;6.95;2.58;;;;;;;;;;21081487;28;20048;-67
2022/11/30 05:13:28;;;;;;;4.60;2.17;;;;;;;;;;21079923;28;20177;-66
2022/11/30 05:23:31;;;;;;;7.85;2.10;;;;;;;;;;21079680;28;20044;-66
2022/11/30 05:33:34;;;;;;;6.90;2.60;;;;;;;;;;21078326;28;20044;-66
2022/11/30 05:43:36;;;;;;;8.48;2.75;;;;;;;;;;21078364;28;20040;-67
2022/11/30 05:53:39;;;;;;;8.73;3.58;;;;;;;;;;21090661;28;20529;-67
2022/11/30 06:03:42;;;;;;;5.93;2.25;;;;;;;;;;21094899;28;20044;-66
2022/11/30 06:13:44;;;;;;;5.72;2.72;;;;;;;;;;21094246;28;20083;-66
2022/11/30 06:23:46;;;;;;;9.63;2.40;;;;;;;;;;21093561;28;20048;-68
2022/11/30 06:33:48;;;;;;;6.10;2.20;;;;;;;;;;21090938;28;20063;-67
2022/11/30 06:43:50;;;;;;;6.95;2.25;;;;;;;;;;21090954;28;20044;-65
2022/11/30 06:53:52;;;;;;;8.07;3.17;;;;;;;;;;21090458;28;20044;-64
2022/11/30 07:03:54;;;;;;;11.73;3.17;;;;;;;;;;21087507;28;20051;-68
2022/11/30 07:13:56;;;;;;;7.95;3.08;;;;;;;;;;21088160;28;20066;-68
2022/11/30 07:34:19;;;;;;;9.85;3.67;;;;;;;;;;21086626;28;20056;-66
2022/11/30 07:44:21;;;;;;;8.98;3.22;;;;;;;;;;21086456;28;20044;-67
2022/11/30 07:54:24;;;;;;;10.43;3.03;;;;;;;;;;21085658;28;20044;-66
2022/11/30 08:04:26;;;;;;;6.65;2.80;;;;;;;;;;21085269;28;20098;-67
2022/11/30 08:14:28;;;;;;;4.93;2.28;;;;;;;;;;21082835;28;20047;-67
2022/11/30 08:24:30;;;;;;;5.32;2.70;;;;;;;;;;21083018;28;20048;-66
2022/11/30 08:34:32;;;;;;;5.70;2.42;;;;;;;;;;21081884;28;20088;-66
2022/11/30 08:44:34;;;;;;;8.00;2.70;;;;;;;;;;21080824;28;20091;-66
2022/11/30 08:54:37;;;;;;;8.35;2.47;;;;;;;;;;21080697;28;20050;-66
2022/11/30 09:04:39;;;;;;;6.40;3.38;;;;;;;;;;21080232;28;20087;-67
2022/11/30 09:14:43;;;;;;;8.13;3.20;;;;;;;;;;21078869;28;20054;-64
2022/11/30 09:24:45;;;;;;;37.15;16.42;;;;;;;;;;21078511;28;20129;-66
2022/11/30 09:34:47;;;;;;;9.05;4.25;;;;;;;;;;21078123;28;20052;-67
2022/11/30 09:44:58;;;;;;;8.02;4.10;;;;;;;;;;21079182;28;20048;-66
2022/11/30 09:55:05;;;;;;;16.00;6.00;;;;;;;;;;21052988;28;20360;-67
2022/11/30 10:05:14;;;;;;;15.63;5.43;;;;;;;;;;20989046;28;20051;-65
2022/11/30 10:15:35;;;;;;;16.83;6.23;;;;;;;;;;20992188;28;20076;-65
2022/11/30 10:25:42;;;;;;;20.98;6.80;;;;;;;;;;20993687;28;20132;-64
2022/11/30 10:35:46;;;;;;;17.67;6.75;;;;;;;;;;20999051;28;20044;-62
2022/11/30 10:45:49;;;;;;;15.18;5.28;;;;;;;;;;21006782;28;20052;-64
2022/11/30 10:56:07;;;;;;;17.58;6.82;;;;;;;;;;21005635;28;20085;-63
2022/11/30 11:06:09;;;;;;;12.73;5.28;;;;;;;;;;21005105;28;20060;-64
2022/11/30 11:16:12;;;;;;;11.75;3.38;;;;;;;;;;21005193;28;20045;-65
2022/11/30 11:26:18;;;;;;;11.77;3.97;;;;;;;;;;21004215;28;20052;-69
2022/11/30 11:36:25;;;;;;;17.33;4.55;;;;;;;;;;21003336;28;20048;-65
2022/11/30 11:46:28;;;;;;;11.00;3.90;;;;;;;;;;21001219;28;20127;-65
2022/11/30 11:56:36;;;;;;;11.82;3.67;;;;;;;;;;21000469;28;20059;-65
2022/11/30 12:06:39;;;;;;;13.65;4.38;;;;;;;;;;20982353;28;20048;-68
2022/11/30 12:16:50;;;;;;;11.90;3.83;;;;;;;;;;21000779;28;20428;-61
2022/11/30 12:27:10;;;;;;;11.55;4.15;;;;;;;;;;21001938;28;20569;-71
2022/11/30 12:37:12;;;;;;;;;;;;;;;;;;20998539;28;20102;-65
2022/11/30 12:47:20;;;;;;;23.52;8.95;;;;;;;;;;20998075;28;20013;-64
2022/11/30 12:57:22;;;;;;;8.98;4.53;;;;;;;;;;20996139;28;20450;-67
2022/11/30 13:07:37;;;;;;;7.13;3.30;;;;;;;;;;20996406;28;20051;-61
2022/11/30 13:17:40;;;;;;;14.70;4.82;;;;;;;;;;20995958;28;20135;-68
2022/11/30 13:27:52;;;;;;;11.27;4.68;;;;;;;;;;20996136;28;20048;-69
2022/11/30 13:38:02;;;;;;;10.63;4.80;;;;;;;;;;20995235;28;20052;-69
2022/11/30 13:48:19;;;;;;;12.32;4.93;;;;;;;;;;20994508;28;20122;-69
2022/11/30 13:58:21;;;;;;;8.50;3.22;;;;;;;;;;20994872;28;20075;-68
2022/11/30 14:08:23;;;;;;;6.53;2.83;;;;;;;;;;20996594;28;20045;-69
2022/11/30 14:18:29;;;;;;;10.52;2.63;;;;;;;;;;21008067;28;20087;-69
2022/11/30 14:28:40;;;;;;;8.70;2.78;;;;;;;;;;21007476;28;20048;-67
2022/11/30 14:38:43;;;;;;;7.13;2.30;;;;;;;;;;21007664;28;20048;-68
2022/11/30 14:48:45;;;;;;;7.03;2.92;;;;;;;;;;21007027;28;20457;-68
2022/11/30 14:58:55;;;;;;;8.25;3.00;;;;;;;;;;21005476;28;20045;-69
2022/11/30 15:08:58;;;;;;;9.37;3.83;;;;;;;;;;21005139;28;20060;-68
2022/11/30 15:19:17;;;;;;;19.30;8.35;;;;;;;;;;21003028;28;20067;-68
2022/11/30 15:29:19;;;;;;;12.45;4.70;;;;;;;;;;21003402;28;20056;-68
2022/11/30 15:39:23;;;;;;;9.18;3.58;;;;;;;;;;21003314;28;20433;-68
2022/11/30 15:49:26;;;;;;;7.88;2.65;;;;;;;;;;21001468;28;20135;-66
2022/11/30 15:59:32;;;;;;;5.95;2.15;;;;;;;;;;21000474;28;20048;-67
2022/11/30 16:09:37;;;;;;;11.52;4.10;;;;;;;;;;21000411;28;20086;-68
2022/11/30 16:19:39;;;;;;;7.80;2.17;;;;;;;;;;20999523;28;20119;-68
2022/11/30 16:29:41;;;;;;;2.08;1.05;;;;;;;;;;20998139;28;20058;-60
2022/11/30 16:39:43;;;;;;;4.38;1.80;;;;;;;;;;20996740;28;20378;-65
2022/11/30 16:49:45;;;;;;;5.97;2.03;;;;;;;;;;20996912;28;20056;-60
2022/11/30 16:59:47;;;;;;;12.77;2.13;;;;;;;;;;20995698;28;20052;-67
2022/11/30 17:09:49;;;;;;;4.88;2.53;;;;;;;;;;20995954;28;20122;-60
2022/11/30 17:19:51;;;;;;;6.80;2.50;;;;;;;;;;20995145;28;20048;-59
2022/11/30 17:29:53;;;;;;;9.30;4.05;;;;;;;;;;20993279;28;20055;-61
2022/11/30 17:39:56;;;;;;;8.18;3.00;;;;;;;;;;20992110;28;20130;-61
2022/11/30 17:49:58;;;;;;;9.82;3.45;;;;;;;;;;21003356;28;20146;-68
2022/11/30 18:00:00;;;;;;;7.95;3.00;;;;;;;;;;21009675;28;20090;-66
2022/11/30 18:10:02;;;;;;;7.03;2.53;;;;;;;;;;21008881;28;20049;-62
2022/11/30 18:20:05;;;;;;;7.53;3.30;;;;;;;;;;21004430;28;20124;-63
2022/11/30 18:30:08;;;;;;;7.38;3.47;;;;;;;;;;21005994;28;20052;-63
2022/11/30 18:40:10;;;;;;;13.85;6.43;;;;;;;;;;21003418;28;20048;-67
2022/11/30 18:50:12;;;;;;;9.82;3.55;;;;;;;;;;20988692;28;20048;-66
2022/11/30 19:00:17;;;;;;;8.90;3.58;;;;;;;;;;20998343;28;20071;-63
2022/11/30 19:10:19;;;;;;;13.68;4.78;;;;;;;;;;20995397;28;20059;-65
2022/11/30 19:20:21;;;;;;;10.88;3.53;;;;;;;;;;20999219;28;20485;-66
2022/11/30 19:30:25;;;;;;;9.40;3.30;;;;;;;;;;21002134;28;20401;-62
2022/11/30 19:40:26;;;;;;;8.43;3.25;;;;;;;;;;21002928;28;20055;-65
2022/11/30 19:50:28;;;;;;;10.45;3.25;;;;;;;;;;21000656;28;20059;-62
2022/11/30 20:00:30;;;;;;;7.93;3.00;;;;;;;;;;21001446;28;20102;-64
2022/11/30 20:10:32;;;;;;;10.10;3.08;;;;;;;;;;20999637;28;20095;-64
2022/11/30 20:20:34;;;;;;;6.05;3.08;;;;;;;;;;20999704;28;20048;-62
2022/11/30 20:30:36;;;;;;;11.07;4.10;;;;;;;;;;21015185;28;20069;-61
2022/11/30 20:40:38;;;;;;;6.78;3.90;;;;;;;;;;20997988;28;20045;-62
2022/11/30 20:50:41;;;;;;;17.25;4.93;;;;;;;;;;20998161;28;20048;-62
2022/11/30 21:00:43;;;;;;;10.50;4.93;;;;;;;;;;20997973;28;20037;-60
2022/11/30 21:10:45;;;;;;;7.88;3.95;;;;;;;;;;20996875;28;20044;-61
2022/11/30 21:20:48;;;;;;;9.48;3.63;;;;;;;;;;20994868;28;20045;-61
2022/11/30 21:30:50;;;;;;;13.13;4.88;;;;;;;;;;20995075;28;20056;-61
2022/11/30 21:40:54;;;;;;;5.40;3.08;;;;;;;;;;20995576;28;20044;-61
2022/11/30 21:51:00;;;;;;;12.95;6.97;;;;;;;;;;20995787;28;20058;-59
2022/11/30 22:01:03;;;;;;;17.77;8.95;;;;;;;;;;20994598;28;20080;-60
2022/11/30 22:11:08;;;;;;;9.50;3.88;;;;;;;;;;20994877;28;20048;-62
2022/11/30 22:21:14;;;;;;;11.23;4.63;;;;;;;;;;20994156;28;20180;-61
2022/11/30 22:31:19;;;;;;;11.73;4.97;;;;;;;;;;20998085;28;20055;-62
2022/11/30 22:41:25;;;;;;;8.55;3.90;;;;;;;;;;21008478;28;20087;-60
2022/11/30 22:51:28;;;;;;;10.35;3.75;;;;;;;;;;21008066;28;20056;-60
2022/11/30 23:01:32;;;;;;;10.55;3.53;;;;;;;;;;21005614;28;20049;-60
2022/11/30 23:11:35;;;;;;;8.85;3.75;;;;;;;;;;21005515;28;20109;-60
2022/11/30 23:21:43;;;;;;;8.80;4.15;;;;;;;;;;21004571;28;20137;-60
2022/11/30 23:31:46;;;;;;;7.03;3.42;;;;;;;;;;21003853;28;20162;-60
2022/11/30 23:41:48;;;;;;;6.72;2.72;;;;;;;;;;21002649;28;20053;-61
2022/11/30 23:51:50;;;;;;;5.75;2.78;;;;;;;;;;21002885;28;20116;-60
